Los Alamitos Army Air Field
KSLI : now visible

Airfield :











YOU CAN JOIN US ON...

 
LOGIN :

Register | Disclaimer

   EN    FR    IT 

 









Legend :    VFR   Marginal VFR   IFR   Intensive IFR   Very Intensive IFR
Visi :
Ceiling :
>= 8 km
>= 3000ft
5 to 8 km
1000 to 3000 ft
1500m to 5 km
500 to 1000 ft
800 to 1500m
200 to 500 ft
< 800m
< 200 ft
Symbols :   Thunderstorms  Fog  Heavy snow  Heavy precipitations  Wind > 20 kt






- Airport Elevation : 32 ft


KSLI - Los Alamitos Army Air Field

CURRENT METAR :
  • 181855Z 20005KT 7SM SCT025 23/15 A2975 RMK AO2A SLP077 T02300148

EXPIRED METARs :
  • 181755Z VRB03KT 6SM HZ SCT024 21/14 A2976 RMK AO2A SLP081 T02100139 10211 20175 50004
  • 181655Z 00000KT 6SM HZ OVC022 20/13 A2975 RMK AO2A SLP077 T01950134
  • 181610Z 12005KT 6SM HZ OVC020 19/14 A2976 RMK AO2A SLP081
  • 181555Z 13003KT 6SM HZ OVC019 19/13 A2976 RMK AO2A SLP081 T01900134
  • 181455Z 00000KT 6SM HZ OVC018 18/14 A2974 RMK AO2A SLP074 T01840135 52016

TAF AMD TAF KSLI
Valid from the 18 at 14:00 until the 19 at 19:00 UTC


181420Z 1814/1919 11006KT 9999 BKN012 QNH2968INS
BECMG 1815/1816 VRB06KT 8000 BR FEW015 BKN020 QNH2976INS
BECMG 1819/1820 VRB06KT 9999 NSW FEW020 QNH2972INS TX24/1823Z TN15/1814Z
KZLA FIR / North America



MET'MAP, your aeronautical weather chart ! - Copyright ORBIFLY December 2007 - Disclaimer

ORBIFLY MET'MAP TEAM :

Programming & Development : Alexandra Zaïnal
Original concept : Baudouin d'Aumeries
Technical & hardware support : Manuel Goepfert
Assistance : Marc-Olivier Méhu




SOURCES & CREDITS :

   NOAA       Earth
Advisory